Time;durP1;ratioP1;P1;durP2;ratioP2;P2;SDS_P1;SDS_P2;PMS_P1;PMS_P2;Temp;Humidity;BMP_temperature;BMP_pressure;BME280_temperature;BME280_humidity;BME280_pressure;Samples;Min_cycle;Max_cycle;Signal;HPM_P1;HPM_P2
2021/11/30 05:02:55;;;;;;;1.63;1.52;;;;;;;0.90;100.00;93811.16;4951943;28;20074;-70
2021/11/30 05:05:20;;;;;;;1.65;1.55;;;;;;;1.01;100.00;93844.91;4952254;28;20077;-70
2021/11/30 05:07:46;;;;;;;1.33;1.23;;;;;;;0.92;100.00;93855.13;4959026;28;20035;-70
2021/11/30 05:10:13;;;;;;;3.25;1.67;;;;;;;0.80;100.00;93856.25;4963919;28;20027;-70
2021/11/30 05:12:40;;;;;;;1.50;1.40;;;;;;;0.79;100.00;93875.03;4967164;28;20521;-70
2021/11/30 05:15:06;;;;;;;1.75;1.65;;;;;;;0.88;100.00;93890.28;4954113;28;20038;-71
2021/11/30 05:17:32;;;;;;;1.90;1.80;;;;;;;0.78;100.00;93893.78;4952824;28;20583;-70
2021/11/30 05:19:57;;;;;;;2.28;1.60;;;;;;;0.92;100.00;93906.09;4953818;28;20043;-70
2021/11/30 05:22:23;;;;;;;2.15;1.95;;;;;;;0.92;100.00;93903.56;4953203;28;20058;-70
2021/11/30 05:24:48;;;;;;;1.73;1.63;;;;;;;0.81;100.00;93904.50;4953601;28;20098;-70
2021/11/30 05:27:16;;;;;;;2.15;1.95;;;;;;;0.80;100.00;93913.13;4970967;28;20078;-70
2021/11/30 05:29:41;;;;;;;1.75;1.65;;;;;;;0.77;100.00;93918.47;4953150;28;20483;-71
2021/11/30 05:32:07;;;;;;;1.50;1.40;;;;;;;0.88;100.00;93910.66;4970530;28;20084;-70
2021/11/30 05:34:32;;;;;;;2.60;2.40;;;;;;;0.73;100.00;93903.59;4952444;28;20077;-70
2021/11/30 05:36:58;;;;;;;3.95;1.90;;;;;;;0.61;100.00;93908.03;4953831;28;20114;-70
2021/11/30 05:39:23;;;;;;;2.13;1.95;;;;;;;0.70;100.00;93916.63;4968384;28;20451;-70
2021/11/30 05:41:48;;;;;;;2.40;2.20;;;;;;;0.66;100.00;93921.19;4970599;28;20031;-71
2021/11/30 05:44:14;;;;;;;3.15;2.92;;;;;;;0.49;100.00;93925.22;4970099;28;20023;-71
2021/11/30 05:46:41;;;;;;;3.75;3.20;;;;;;;0.43;100.00;93940.22;4951888;28;20023;-70
2021/11/30 05:49:06;;;;;;;5.50;3.55;;;;;;;0.47;100.00;93939.03;4954266;28;20447;-71
2021/11/30 05:51:34;;;;;;;5.03;4.63;;;;;;;0.42;100.00;93948.81;4952053;28;20026;-71
2021/11/30 05:54:00;;;;;;;6.57;5.97;;;;;;;0.42;100.00;93964.88;4953106;28;20046;-71
2021/11/30 06:49:10;;;;;;;9.60;8.80;;;;;;;0.28;100.00;94628.91;5120107;27;20400;-70
2021/11/30 06:51:36;;;;;;;9.20;8.40;;;;;;;0.19;100.00;94614.34;5098702;28;20503;-70
2021/11/30 06:54:01;;;;;;;8.68;7.97;;;;;;;0.46;100.00;94612.19;5097454;28;20054;-70
2021/11/30 06:56:27;;;;;;;10.02;9.13;;;;;;;0.37;100.00;94582.38;5100063;28;20073;-70
2021/11/30 06:58:52;;;;;;;9.80;8.90;;;;;;;0.32;100.00;94556.47;5087244;28;20028;-70
2021/11/30 07:01:18;;;;;;;10.38;9.30;;;;;;;0.33;100.00;94527.50;5092131;28;20054;-71
2021/11/30 07:03:46;;;;;;;10.45;9.48;;;;;;;0.22;100.00;94495.28;5090697;28;20389;-68
2021/11/30 07:11:37;;;;;;;11.75;10.55;;;;;;;0.37;100.00;94388.84;5072375;28;20101;-70
2021/11/30 07:28:14;;;;;;;11.55;10.45;;;;;;;0.45;100.00;94234.50;5127120;27;20387;-71
2021/11/30 07:30:42;;;;;;;11.65;10.32;;;;;;;0.46;100.00;94223.41;5106657;28;20066;-73
2021/11/30 07:33:08;;;;;;;11.52;10.43;;;;;;;0.43;100.00;94215.22;5106981;28;20076;-73
2021/11/30 07:35:33;;;;;;;11.68;10.48;;;;;;;0.52;100.00;94209.34;5107896;28;20449;-73
2021/11/30 07:37:59;;;;;;;15.02;11.45;;;;;;;0.25;100.00;94197.22;5107111;28;20015;-71
2021/11/30 07:40:25;;;;;;;11.88;10.85;;;;;;;0.39;100.00;94196.84;5089934;28;20031;-71
2021/11/30 07:42:50;;;;;;;12.80;11.60;;;;;;;0.35;100.00;94187.06;5125614;28;20072;-71
2021/11/30 07:45:16;;;;;;;12.32;11.07;;;;;;;0.28;100.00;94175.78;5126858;27;20038;-71
2021/11/30 07:47:42;;;;;;;12.23;11.02;;;;;;;0.31;100.00;94181.41;5124957;28;20031;-71
2021/11/30 07:50:09;;;;;;;13.10;11.75;;;;;;;0.32;100.00;94182.22;5120646;28;20024;-73
2021/11/30 07:52:39;;;;;;;15.05;13.30;;;;;;;0.37;100.00;94175.81;5087864;28;20039;-72
2021/11/30 07:55:08;;;;;;;14.60;13.07;;;;;;;0.44;100.00;94178.66;5110185;27;20023;-71
2021/11/30 07:57:33;;;;;;;14.82;13.05;;;;;;;-142.70;100.00;60390.16;5090263;28;20027;-71
2021/11/30 07:59:59;;;;;;;14.25;12.75;;;;;;;-142.70;100.00;60390.16;5089418;28;20484;-70
2021/11/30 08:02:25;;;;;;;15.93;14.25;;;;;;;-142.70;100.00;60390.16;5107567;28;20031;-71
2021/11/30 08:04:51;;;;;;;17.60;14.32;;;;;;;-142.70;100.00;60390.16;5106694;28;20024;-71
2021/11/30 08:07:18;;;;;;;16.45;14.73;;;;;;;-142.70;100.00;60390.16;5101548;28;20073;-71
2021/11/30 08:09:45;;;;;;;15.60;14.00;;;;;;;-142.70;100.00;60390.16;5090601;28;20530;-72
2021/11/30 08:12:12;;;;;;;16.80;15.07;;;;;;;-142.70;100.00;60390.16;5107198;28;20403;-71
2021/11/30 08:14:38;;;;;;;16.52;14.73;;;;;;;-142.70;100.00;60390.16;5091240;28;20403;-71
2021/11/30 08:17:06;;;;;;;16.40;14.45;;;;;;;-142.70;100.00;60390.16;5102234;28;20026;-71
2021/11/30 08:19:31;;;;;;;16.83;14.98;;;;;;;-142.70;100.00;60390.16;5070672;28;20468;-71
2021/11/30 08:21:57;;;;;;;15.80;14.10;;;;;;;-142.70;100.00;60390.16;5069481;28;20030;-71
2021/11/30 08:24:24;;;;;;;18.08;14.73;;;;;;;-142.70;100.00;60390.16;5087346;28;20644;-73
2021/11/30 08:26:49;;;;;;;15.70;14.07;;;;;;;-142.70;100.00;60390.16;5086863;28;20504;-74
2021/11/30 08:29:15;;;;;;;17.42;14.40;;;;;;;-142.70;100.00;60390.16;5055862;28;20036;-73
2021/11/30 08:31:40;;;;;;;15.52;13.88;;;;;;;-142.70;100.00;60390.16;5073878;28;20028;-73
2021/11/30 08:34:05;;;;;;;15.35;13.85;;;;;;;-142.70;100.00;60390.16;5055375;28;20020;-73
2021/11/30 08:36:31;;;;;;;14.98;13.43;;;;;;;-142.70;100.00;60390.16;5055610;28;20101;-73
2021/11/30 08:38:56;;;;;;;16.13;14.43;;;;;;;-142.70;100.00;60390.16;5072599;28;20035;-73
2021/11/30 08:41:24;;;;;;;17.48;14.38;;;;;;;-142.70;100.00;60390.16;5073411;28;20028;-73
2021/11/30 08:43:49;;;;;;;16.38;14.65;;;;;;;-142.70;100.00;60390.16;5056340;28;20157;-73
2021/11/30 08:46:15;;;;;;;15.48;14.05;;;;;;;-142.70;100.00;60390.16;5073399;28;20027;-73
2021/11/30 08:48:41;;;;;;;16.90;15.20;;;;;;;-142.70;100.00;60390.16;5073348;28;20032;-72
2021/11/30 08:51:07;;;;;;;17.63;14.80;;;;;;;-142.70;100.00;60390.16;5055834;28;20046;-72
2021/11/30 08:53:35;;;;;;;16.38;14.43;;;;;;;-142.70;100.00;60390.16;5073112;28;20032;-73
2021/11/30 08:56:03;;;;;;;17.02;15.32;;;;;;;-142.70;100.00;60390.16;5090466;28;20108;-73
2021/11/30 08:58:29;;;;;;;17.23;15.35;;;;;;;-142.70;100.00;60390.16;5056019;28;20051;-73
2021/11/30 09:00:55;;;;;;;17.08;15.27;;;;;;;-142.70;100.00;60390.16;5055441;28;20055;-73
2021/11/30 09:03:21;;;;;;;16.92;14.85;;;;;;;-142.70;100.00;60390.16;5073004;28;20024;-72
2021/11/30 09:05:46;;;;;;;18.30;16.40;;;;;;;-142.70;100.00;60390.16;5090668;28;20493;-73
2021/11/30 09:08:12;;;;;;;19.20;16.63;;;;;;;-142.70;100.00;60390.16;5067997;28;20070;-72
2021/11/30 09:10:38;;;;;;;16.48;14.48;;;;;;;-142.70;100.00;60390.16;5050432;28;20019;-72
2021/11/30 09:13:04;;;;;;;17.73;15.57;;;;;;;-142.70;100.00;60390.16;5062948;28;20031;-73
2021/11/30 09:15:29;;;;;;;18.13;15.85;;;;;;;-142.70;100.00;60390.16;5070304;28;20025;-73
2021/11/30 09:17:56;;;;;;;18.45;14.80;;;;;;;-142.70;100.00;60390.16;5074143;28;20555;-73
2021/11/30 09:20:23;;;;;;;16.40;14.65;;;;;;;-142.70;100.00;60390.16;5106843;28;20024;-73
2021/11/30 09:22:50;;;;;;;18.30;16.15;;;;;;;-142.70;100.00;60390.16;5071902;28;20239;-73
2021/11/30 09:25:16;;;;;;;17.08;14.57;;;;;;;-142.70;100.00;60390.16;5072733;28;20110;-72
2021/11/30 09:27:43;;;;;;;17.13;14.82;;;;;;;-142.70;100.00;60390.16;5090651;28;20177;-72
2021/11/30 09:30:10;;;;;;;16.48;14.57;;;;;;;-142.70;100.00;60390.16;5071747;28;20032;-72
2021/11/30 09:32:36;;;;;;;16.00;13.70;;;;;;;-142.70;100.00;60390.16;5072041;28;20024;-73
2021/11/30 09:35:02;;;;;;;17.58;14.10;;;;;;;-142.70;100.00;60390.16;5071442;28;20028;-73
2021/11/30 09:37:29;;;;;;;17.77;15.25;;;;;;;-142.70;100.00;60390.16;5090209;28;20042;-73
2021/11/30 09:39:55;;;;;;;18.83;15.40;;;;;;;-142.70;100.00;60390.16;5070359;28;20115;-73
2021/11/30 09:42:20;;;;;;;16.40;14.65;;;;;;;-142.70;100.00;60390.16;5072456;28;20180;-72
2021/11/30 09:44:46;;;;;;;16.98;14.13;;;;;;;-142.70;100.00;60390.16;5055356;28;20154;-73
2021/11/30 09:47:14;;;;;;;14.07;12.57;;;;;;;-142.70;100.00;60390.16;5054900;28;20024;-72
2021/11/30 09:49:39;;;;;;;15.07;13.07;;;;;;;-142.70;100.00;60390.16;5088438;28;20043;-73
2021/11/30 09:52:05;;;;;;;13.85;12.45;;;;;;;-142.70;100.00;60390.16;5054422;28;20036;-73
2021/11/30 09:54:31;;;;;;;14.73;13.23;;;;;;;-142.70;100.00;60390.16;5071065;28;20028;-72
2021/11/30 09:56:57;;;;;;;16.10;13.13;;;;;;;-142.70;100.00;60390.16;5070863;28;20407;-72
2021/11/30 09:59:22;;;;;;;16.35;13.23;;;;;;;-142.70;100.00;60390.16;5071647;28;20056;-72
2021/11/30 10:01:48;;;;;;;13.98;12.57;;;;;;;-142.70;100.00;60390.16;5089106;28;20416;-73
2021/11/30 10:04:13;;;;;;;15.18;12.45;;;;;;;-142.70;100.00;60390.16;5051133;28;20070;-73
2021/11/30 10:06:40;;;;;;;13.98;12.57;;;;;;;-142.70;100.00;60390.16;5069977;28;20033;-73
2021/11/30 10:09:24;;;;;;;14.07;12.65;;;;;;;-142.70;100.00;60390.16;5060598;28;20036;-73
2021/11/30 10:12:07;;;;;;;15.23;11.63;;;;;;;-142.70;100.00;60390.16;5057056;28;20024;-72
2021/11/30 10:14:38;;;;;;;14.60;13.02;;;;;;;-142.70;100.00;60390.16;5072327;28;20024;-72
2021/11/30 10:17:10;;;;;;;14.45;12.95;;;;;;;-142.70;100.00;60390.16;5071135;28;20024;-73
2021/11/30 10:19:36;;;;;;;17.10;12.95;;;;;;;-142.70;100.00;60390.16;5089771;28;20032;-74
2021/11/30 10:22:02;;;;;;;13.25;12.00;;;;;;;-142.70;100.00;60390.16;5070559;28;20016;-73
2021/11/30 10:24:28;;;;;;;13.10;11.70;;;;;;;-142.70;100.00;60390.16;5071679;28;20073;-72
2021/11/30 10:26:57;;;;;;;16.27;13.13;;;;;;;-142.70;100.00;60390.16;5070221;28;20044;-72
2021/11/30 10:29:23;;;;;;;12.88;11.57;;;;;;;-142.70;100.00;60390.16;5050415;28;20394;-73
2021/11/30 10:31:52;;;;;;;14.30;12.18;;;;;;;-142.70;100.00;60390.16;5070506;28;20054;-73
2021/11/30 10:34:18;;;;;;;12.95;11.63;;;;;;;-142.70;100.00;60390.16;5071297;28;20020;-74
2021/11/30 10:36:57;;;;;;;12.57;11.30;;;;;;;-142.70;100.00;60390.16;5054359;28;20032;-73
2021/11/30 10:39:29;;;;;;;12.73;11.43;;;;;;;-142.70;100.00;60390.16;5070349;28;20019;-73
2021/11/30 10:42:16;;;;;;;12.23;11.02;;;;;;;-142.70;100.00;60390.16;5069937;28;20032;-73
2021/11/30 10:44:43;;;;;;;11.43;10.32;;;;;;;-142.70;100.00;60390.16;5078947;28;20496;-73
2021/11/30 10:47:13;;;;;;;11.38;10.25;;;;;;;-142.70;100.00;60390.16;5087383;28;20027;-74
2021/11/30 10:50:09;;;;;;;13.63;10.82;;;;;;;-142.70;100.00;60390.16;5054344;28;20033;-73
2021/11/30 10:52:35;;;;;;;10.75;9.73;;;;;;;-142.70;100.00;60390.16;5068481;28;20041;-74
2021/11/30 10:55:12;;;;;;;11.63;10.57;;;;;;;-142.70;100.00;60390.16;5070610;28;20024;-73
2021/11/30 10:57:38;;;;;;;11.45;10.15;;;;;;;-142.70;100.00;60390.16;5087452;28;20067;-74
2021/11/30 11:00:15;;;;;;;12.38;11.10;;;;;;;-142.70;100.00;60390.16;5069956;28;20461;-74
2021/11/30 11:03:01;;;;;;;11.32;10.20;;;;;;;-142.70;100.00;60390.16;5081801;28;20032;-73
2021/11/30 11:05:38;;;;;;;11.10;10.02;;;;;;;-142.70;100.00;60390.16;5063766;28;20021;-74
2021/11/30 11:08:13;;;;;;;10.63;9.63;;;;;;;-142.70;100.00;60390.16;5081670;28;20028;-74
2021/11/30 11:10:42;;;;;;;10.50;9.50;;;;;;;-142.70;100.00;60390.16;5087748;28;20035;-74
2021/11/30 11:13:22;;;;;;;10.45;9.35;;;;;;;-142.70;100.00;60390.16;5070694;28;20417;-74
2021/11/30 11:15:50;;;;;;;11.23;9.45;;;;;;;-142.70;100.00;60390.16;5088334;28;20062;-74
2021/11/30 11:18:24;;;;;;;10.73;9.73;;;;;;;-142.70;100.00;60390.16;5067929;28;20411;-75
2021/11/30 11:21:13;;;;;;;10.35;9.27;;;;;;;-142.70;100.00;60390.16;5085055;28;20016;-74
2021/11/30 11:23:43;;;;;;;10.60;9.60;;;;;;;-142.70;100.00;60390.16;5085688;28;20024;-73
2021/11/30 11:26:20;;;;;;;10.05;9.18;;;;;;;-142.70;100.00;60390.16;5044775;28;20188;-73
2021/11/30 11:28:46;;;;;;;10.10;9.10;;;;;;;-142.70;100.00;60390.16;5070181;28;20028;-74
2021/11/30 11:31:11;;;;;;;11.85;10.73;;;;;;;-142.70;100.00;60390.16;5068784;28;20076;-74
2021/11/30 11:33:37;;;;;;;10.93;9.82;;;;;;;-142.70;100.00;60390.16;5053912;28;20024;-74
2021/11/30 11:36:05;;;;;;;10.98;9.88;;;;;;;-142.70;100.00;60390.16;5102519;28;20115;-74
2021/11/30 11:38:30;;;;;;;11.35;10.25;;;;;;;-142.70;100.00;60390.16;5104748;28;20028;-75
2021/11/30 11:40:56;;;;;;;10.95;9.85;;;;;;;-142.70;100.00;60390.16;5103735;28;20128;-75
2021/11/30 11:43:21;;;;;;;10.45;9.35;;;;;;;-142.70;100.00;60390.16;5087293;28;20031;-74
2021/11/30 11:45:47;;;;;;;10.05;9.10;;;;;;;-142.70;100.00;60390.16;5103840;28;20035;-74
2021/11/30 11:48:12;;;;;;;11.02;10.02;;;;;;;-142.70;100.00;60390.16;5069911;28;20020;-74
2021/11/30 11:50:51;;;;;;;10.68;9.77;;;;;;;-142.70;100.00;60390.16;5070960;28;20023;-75
2021/11/30 11:53:22;;;;;;;11.20;9.73;;;;;;;-142.70;100.00;60390.16;5069520;28;20507;-75
2021/11/30 11:56:31;;;;;;;9.55;8.55;;;;;;;-142.70;100.00;60390.16;5070473;28;20489;-74
2021/11/30 11:59:08;;;;;;;10.00;9.10;;;;;;;-142.70;100.00;60390.16;4954587;28;20088;-74
2021/11/30 12:01:34;;;;;;;10.30;9.40;;;;;;;-142.70;100.00;60390.16;5075735;28;20075;-73
2021/11/30 12:04:02;;;;;;;10.13;9.13;;;;;;;-142.70;100.00;60390.16;5064409;28;20029;-75
2021/11/30 12:06:32;;;;;;;10.63;9.52;;;;;;;-142.70;100.00;60390.16;5046760;28;20032;-73
2021/11/30 12:09:20;;;;;;;9.48;8.57;;;;;;;-142.70;100.00;60390.16;5087650;28;20060;-74
2021/11/30 12:11:49;;;;;;;9.63;8.68;;;;;;;-142.70;100.00;60390.16;5086137;28;20083;-74
2021/11/30 12:14:19;;;;;;;9.95;8.75;;;;;;;-142.70;100.00;60390.16;5081498;28;20106;-74
2021/11/30 12:17:03;;;;;;;9.65;8.85;;;;;;;-142.70;100.00;60390.16;5057548;28;20044;-73
2021/11/30 12:19:31;;;;;;;9.20;8.30;;;;;;;-142.70;100.00;60390.16;5090981;28;20031;-74
2021/11/30 12:21:57;;;;;;;10.38;9.48;;;;;;;-142.70;100.00;60390.16;5073294;28;20078;-74
2021/11/30 12:24:45;;;;;;;8.77;7.95;;;;;;;-142.70;100.00;60390.16;5072948;28;20542;-74
2021/11/30 12:27:15;;;;;;;9.15;8.35;;;;;;;-142.70;100.00;60390.16;5072830;28;20115;-74
2021/11/30 12:29:41;;;;;;;9.45;8.55;;;;;;;-142.70;100.00;60390.16;5092358;28;20047;-75
2021/11/30 12:32:16;;;;;;;9.57;8.77;;;;;;;-142.70;100.00;60390.16;5072656;28;20107;-74
2021/11/30 12:34:52;;;;;;;8.85;7.95;;;;;;;-142.70;100.00;60390.16;5056724;28;20535;-74
2021/11/30 12:37:27;;;;;;;9.43;8.45;;;;;;;-142.70;100.00;60390.16;5074259;28;20035;-75
2021/11/30 12:39:55;;;;;;;9.52;8.68;;;;;;;-142.70;100.00;60390.16;5073098;28;20062;-74
2021/11/30 12:42:21;;;;;;;9.30;8.45;;;;;;;-142.70;100.00;60390.16;5091321;28;20024;-75
2021/11/30 12:44:47;;;;;;;9.52;8.77;;;;;;;-142.70;100.00;60390.16;5071831;28;20031;-75
2021/11/30 12:47:21;;;;;;;8.70;7.90;;;;;;;-142.70;100.00;60390.16;5073597;28;20036;-75
2021/11/30 12:49:46;;;;;;;9.57;8.70;;;;;;;-142.70;100.00;60390.16;5055119;28;20024;-75
2021/11/30 12:52:14;;;;;;;8.73;7.93;;;;;;;-142.70;100.00;60390.16;5056576;28;20077;-75
2021/11/30 12:54:50;;;;;;;9.27;8.40;;;;;;;-142.70;100.00;60390.16;5072610;28;20103;-75
2021/11/30 12:57:31;;;;;;;8.75;7.95;;;;;;;-142.70;100.00;60390.16;5072305;28;20063;-75
2021/11/30 13:00:04;;;;;;;7.95;7.25;;;;;;;-142.70;100.00;60390.16;5091273;28;20028;-73
2021/11/30 13:02:38;;;;;;;9.18;8.38;;;;;;;-142.70;100.00;60390.16;5071854;28;20023;-75
2021/11/30 13:05:20;;;;;;;9.02;8.10;;;;;;;-142.70;100.00;60390.16;5090472;28;20032;-74
2021/11/30 13:07:48;;;;;;;8.88;8.10;;;;;;;-142.70;100.00;60390.16;5066759;28;20032;-72
2021/11/30 13:10:23;;;;;;;9.65;7.90;;;;;;;-142.70;100.00;60390.16;5071970;28;20065;-75
2021/11/30 13:12:49;;;;;;;8.02;7.32;;;;;;;-142.70;100.00;60390.16;5072428;28;20106;-74
2021/11/30 13:15:17;;;;;;;7.68;6.97;;;;;;;-142.70;100.00;60390.16;5048928;28;20055;-75
2021/11/30 13:17:44;;;;;;;7.63;6.93;;;;;;;-142.70;100.00;60390.16;5052785;28;20746;-75
2021/11/30 13:20:12;;;;;;;9.02;8.23;;;;;;;-142.70;100.00;60390.16;5051720;28;20044;-75
2021/11/30 13:22:42;;;;;;;10.20;7.55;;;;;;;-142.70;100.00;60390.16;5036519;28;20082;-75
2021/11/30 13:25:09;;;;;;;;;;;;;;;-142.70;100.00;60390.16;5055954;28;20020;-75
2021/11/30 13:27:35;;;;;;;7.13;6.47;;;;;;;-142.70;100.00;60390.16;5051371;28;20349;-75
2021/11/30 13:30:08;;;;;;;8.15;7.35;;;;;;;-142.70;100.00;60390.16;5069475;28;20035;-75
2021/11/30 13:32:46;;;;;;;8.40;7.50;;;;;;;-142.70;100.00;60390.16;5067841;28;20040;-75
2021/11/30 13:35:23;;;;;;;7.60;6.90;;;;;;;-142.70;100.00;60390.16;5068907;28;20409;-75
2021/11/30 13:37:52;;;;;;;8.00;7.20;;;;;;;-142.70;100.00;60390.16;5051369;28;20029;-75
2021/11/30 13:40:38;;;;;;;7.85;7.15;;;;;;;-142.70;100.00;60390.16;5069873;28;20478;-75
2021/11/30 13:43:26;;;;;;;7.68;7.00;;;;;;;-142.70;100.00;60390.16;5051989;28;20041;-75
2021/11/30 13:46:04;;;;;;;7.93;7.13;;;;;;;-142.70;100.00;60390.16;5067705;28;20021;-75
2021/11/30 13:48:38;;;;;;;7.50;6.80;;;;;;;-142.70;100.00;60390.16;5070079;28;20029;-75
2021/11/30 13:51:06;;;;;;;7.00;6.40;;;;;;;-142.70;100.00;60390.16;5068259;28;20048;-75
2021/11/30 13:53:35;;;;;;;6.47;5.95;;;;;;;-142.70;100.00;60390.16;5067917;28;20112;-75
2021/11/30 13:56:19;;;;;;;8.05;6.72;;;;;;;-142.70;100.00;60390.16;5069042;28;20024;-74
2021/11/30 13:58:47;;;;;;;6.70;6.10;;;;;;;-142.70;100.00;60390.16;5067609;28;20035;-75
2021/11/30 14:01:25;;;;;;;6.78;6.18;;;;;;;-142.70;100.00;60390.16;5068513;28;20111;-75
2021/11/30 14:03:56;;;;;;;7.60;7.00;;;;;;;-142.70;100.00;60390.16;5067787;28;20536;-74
2021/11/30 14:06:31;;;;;;;7.65;6.95;;;;;;;-142.70;100.00;60390.16;5051139;28;20027;-75
2021/11/30 14:09:08;;;;;;;6.93;6.32;;;;;;;-142.70;100.00;60390.16;5068754;28;20434;-73
2021/11/30 14:11:36;;;;;;;7.50;6.90;;;;;;;-142.70;100.00;60390.16;5049776;28;20108;-74
2021/11/30 14:14:01;;;;;;;7.20;6.50;;;;;;;-142.70;100.00;60390.16;5068317;28;20035;-75
2021/11/30 14:16:27;;;;;;;7.15;6.47;;;;;;;-142.70;100.00;60390.16;5048850;28;20036;-75
2021/11/30 14:19:02;;;;;;;7.80;6.97;;;;;;;-142.70;100.00;60390.16;5061392;28;20044;-74
2021/11/30 14:21:33;;;;;;;7.00;6.30;;;;;;;-142.70;100.00;60390.16;5064057;28;20074;-75
2021/11/30 14:24:11;;;;;;;7.05;6.40;;;;;;;-142.70;100.00;60390.16;5047334;28;20086;-75
2021/11/30 14:26:42;;;;;;;7.97;7.18;;;;;;;-142.70;100.00;60390.16;5041042;28;20764;-73
2021/11/30 14:29:17;;;;;;;8.00;7.22;;;;;;;-142.70;100.00;60390.16;5027437;28;20021;-74
2021/11/30 14:31:58;;;;;;;7.07;6.47;;;;;;;-142.70;100.00;60390.16;5045349;28;20025;-74
2021/11/30 14:34:39;;;;;;;7.80;7.10;;;;;;;-142.70;100.00;60390.16;5048127;28;20048;-74
2021/11/30 14:37:38;;;;;;;8.38;7.43;;;;;;;-142.70;100.00;60390.16;5047056;28;20036;-74
2021/11/30 14:40:08;;;;;;;8.05;7.35;;;;;;;-142.70;100.00;60390.16;5044850;28;20049;-75
2021/11/30 14:42:40;;;;;;;7.90;7.28;;;;;;;-142.70;100.00;60390.16;5048714;28;20033;-75
2021/11/30 14:45:25;;;;;;;8.57;7.70;;;;;;;-142.70;100.00;60390.16;5048966;28;20025;-75
2021/11/30 15:01:28;;;;;;;9.82;8.93;;;;;;;;;;5064957;28;20390;-73
2021/11/30 15:04:00;;;;;;;10.65;9.65;;;;;;;;;;5049963;28;20522;-73
2021/11/30 15:06:37;;;;;;;11.07;9.95;;;;;;;;;;5044066;28;20411;-73
2021/11/30 15:09:23;;;;;;;10.60;9.10;;;;;;;;;;5058067;28;20029;-73
2021/11/30 15:11:50;;;;;;;10.27;9.27;;;;;;;;;;5047624;28;20040;-73
2021/11/30 15:14:16;;;;;;;13.30;11.40;;;;;;;;;;5065123;28;20078;-73
2021/11/30 15:16:45;;;;;;;10.93;9.85;;;;;;;;;;5064364;28;20482;-73
2021/11/30 15:19:29;;;;;;;9.63;8.73;;;;;;;;;;5055485;28;20414;-73
2021/11/30 15:21:55;;;;;;;8.05;7.25;;;;;;;;;;5048199;28;20025;-74
2021/11/30 15:24:21;;;;;;;8.68;7.78;;;;;;;;;;5060500;28;20059;-73
2021/11/30 15:26:47;;;;;;;8.20;7.40;;;;;;;;;;5049807;28;20056;-73
2021/11/30 15:29:14;;;;;;;9.15;8.30;;;;;;;;;;5047933;28;20095;-73
2021/11/30 15:31:40;;;;;;;10.75;8.10;;;;;;;;;;5063217;28;20074;-73
2021/11/30 15:34:05;;;;;;;8.63;7.82;;;;;;;;;;5055695;28;20021;-73
2021/11/30 15:36:30;;;;;;;8.40;7.63;;;;;;;;;;5062386;28;20120;-73
2021/11/30 15:38:56;;;;;;;9.18;8.27;;;;;;;;;;5064884;28;20024;-73
2021/11/30 15:41:21;;;;;;;9.60;8.70;;;;;;;;;;5063230;28;20216;-73
2021/11/30 15:43:47;;;;;;;9.75;8.82;;;;;;;;;;5062131;28;20037;-73
2021/11/30 15:46:12;;;;;;;9.23;8.40;;;;;;;;;;5063140;28;20013;-74
2021/11/30 15:48:37;;;;;;;7.82;7.13;;;;;;;;;;5064138;28;20029;-74
2021/11/30 15:51:03;;;;;;;8.32;7.50;;;;;;;;;;5062112;28;20031;-74
2021/11/30 15:53:28;;;;;;;7.07;6.47;;;;;;;;;;5048730;28;20026;-73
2021/11/30 15:58:37;;;;;;;8.98;7.10;;;;;;;;;;5042870;28;20524;-73
2021/11/30 16:01:03;;;;;;;8.43;6.72;;;;;;;;;;5045370;28;20111;-73
2021/11/30 16:03:28;;;;;;;7.32;6.57;;;;;;;;;;5049199;28;20053;-74
2021/11/30 16:05:53;;;;;;;8.18;7.47;;;;;;;;;;5049838;28;20029;-74
2021/11/30 16:08:19;;;;;;;7.88;7.22;;;;;;;;;;5049884;28;20024;-73
2021/11/30 16:10:44;;;;;;;7.90;6.97;;;;;;;;;;5032059;28;20498;-73
2021/11/30 16:13:10;;;;;;;7.60;6.90;;;;;;;;;;5030883;28;20025;-74
2021/11/30 16:15:35;;;;;;;7.57;6.95;;;;;;;;;;5029554;28;20021;-74
2021/11/30 16:18:00;;;;;;;8.25;7.45;;;;;;;;;;5035195;28;20100;-74
2021/11/30 16:20:25;;;;;;;8.82;8.02;;;;;;;;;;5033389;28;20033;-74
2021/11/30 16:22:51;;;;;;;8.98;8.18;;;;;;;;;;5030647;28;20053;-73
2021/11/30 16:25:18;;;;;;;9.63;8.73;;;;;;;;;;5027755;28;20028;-74
2021/11/30 16:27:45;;;;;;;8.23;7.40;;;;;;;;;;5030587;28;20497;-74
2021/11/30 16:30:11;;;;;;;8.95;8.13;;;;;;;;;;5030261;28;20124;-73
2021/11/30 16:32:36;;;;;;;8.60;7.45;;;;;;;;;;5032267;28;20104;-73
2021/11/30 16:35:02;;;;;;;9.65;8.68;;;;;;;;;;5039493;28;20056;-74
2021/11/30 16:37:27;;;;;;;9.75;8.93;;;;;;;;;;5033888;28;20025;-73
2021/11/30 16:39:52;;;;;;;9.05;8.15;;;;;;;;;;5049218;28;20043;-74
2021/11/30 16:42:18;;;;;;;9.68;8.68;;;;;;;;;;5039798;28;20017;-74
2021/11/30 16:44:46;;;;;;;8.70;7.80;;;;;;;;;;5030321;28;20087;-74
2021/11/30 16:47:11;;;;;;;8.60;7.78;;;;;;;;;;5027702;28;20013;-74
2021/11/30 16:49:38;;;;;;;9.32;8.50;;;;;;;;;;5048077;28;20516;-74
2021/11/30 16:52:04;;;;;;;10.25;9.32;;;;;;;;;;5048601;28;20032;-74
2021/11/30 16:54:29;;;;;;;9.02;8.13;;;;;;;;;;5049038;28;20021;-74
2021/11/30 16:56:55;;;;;;;10.30;9.25;;;;;;;;;;5049994;28;20496;-74
2021/11/30 16:59:20;;;;;;;9.52;8.20;;;;;;;;;;5046120;28;20506;-74
2021/11/30 17:01:45;;;;;;;8.68;7.88;;;;;;;;;;5047064;28;20127;-74
2021/11/30 17:04:11;;;;;;;8.68;7.90;;;;;;;;;;5047632;28;20406;-73
2021/11/30 17:06:37;;;;;;;9.13;8.13;;;;;;;;;;5048286;28;20020;-73
2021/11/30 17:09:02;;;;;;;9.02;7.43;;;;;;;;;;5033057;28;20037;-73
2021/11/30 17:11:28;;;;;;;8.77;7.97;;;;;;;;;;5026260;28;20193;-73
2021/11/30 17:13:53;;;;;;;8.00;7.18;;;;;;;;;;5027281;28;20522;-74
2021/11/30 17:16:21;;;;;;;6.45;5.93;;;;;;;;;;5025391;28;20014;-72
2021/11/30 17:18:47;;;;;;;7.13;6.53;;;;;;;;;;5029387;28;20603;-73
2021/11/30 17:21:14;;;;;;;7.20;6.60;;;;;;;;;;5027317;28;20018;-74
2021/11/30 17:23:48;;;;;;;7.63;7.03;;;;;;;;;;5046827;28;20767;-74
2021/11/30 17:26:14;;;;;;;7.18;6.57;;;;;;;;;;5047737;28;20025;-74
2021/11/30 17:28:39;;;;;;;7.30;6.18;;;;;;;;;;5035961;28;20470;-74
2021/11/30 17:31:04;;;;;;;8.90;7.32;;;;;;;;;;5026820;28;20041;-74
2021/11/30 17:33:29;;;;;;;8.00;7.18;;;;;;;;;;5026788;28;20076;-74
2021/11/30 17:35:55;;;;;;;8.10;7.30;;;;;;;;;;5027827;28;20522;-74
2021/11/30 17:38:20;;;;;;;7.55;6.85;;;;;;;;;;5027626;28;20506;-74
2021/11/30 17:40:45;;;;;;;7.43;6.72;;;;;;;;;;5029814;28;20075;-74
2021/11/30 17:43:11;;;;;;;8.25;7.55;;;;;;;;;;5029053;28;20073;-74
2021/11/30 17:45:38;;;;;;;9.50;7.53;;;;;;;;;;5033842;28;20079;-74
2021/11/30 17:48:04;;;;;;;7.78;6.95;;;;;;;;;;5031632;28;20115;-74
2021/11/30 17:50:29;;;;;;;7.93;7.18;;;;;;;;;;5025553;28;20542;-74
2021/11/30 17:52:56;;;;;;;7.53;6.93;;;;;;;;;;5027567;28;20017;-74
2021/11/30 17:55:21;;;;;;;7.60;6.90;;;;;;;;;;5024976;28;20110;-73
2021/11/30 17:57:47;;;;;;;7.30;6.60;;;;;;;;;;5028725;28;20088;-74
2021/11/30 18:00:13;;;;;;;6.03;5.43;;;;;;;;;;5015816;28;20049;-74
2021/11/30 18:02:39;;;;;;;4.85;4.38;;;;;;;;;;5027350;28;20018;-74
2021/11/30 18:05:05;;;;;;;5.15;4.65;;;;;;;;;;5024981;28;20498;-74
2021/11/30 18:07:31;;;;;;;5.50;5.00;;;;;;;;;;5026533;28;20020;-74
2021/11/30 18:09:56;;;;;;;6.13;4.43;;;;;;;;;;5036139;28;20025;-74
2021/11/30 18:12:22;;;;;;;4.82;4.32;;;;;;;;;;5044257;28;20498;-74
2021/11/30 18:14:47;;;;;;;4.82;4.43;;;;;;;;;;5046752;28;20063;-73
2021/11/30 18:17:12;;;;;;;6.10;4.07;;;;;;;;;;5044215;28;20020;-73
2021/11/30 18:19:38;;;;;;;4.13;3.83;;;;;;;;;;5040947;28;20018;-73
2021/11/30 18:22:04;;;;;;;4.55;4.15;;;;;;;;;;5025696;28;20017;-73
2021/11/30 18:24:29;;;;;;;4.50;4.10;;;;;;;;;;5026329;28;20087;-73
2021/11/30 18:26:54;;;;;;;3.90;3.60;;;;;;;;;;5029057;28;20029;-73
2021/11/30 18:29:20;;;;;;;4.43;4.03;;;;;;;;;;5027848;28;20064;-73
2021/11/30 18:31:45;;;;;;;4.50;4.10;;;;;;;;;;5033887;28;20479;-73
2021/11/30 18:34:10;;;;;;;4.43;3.85;;;;;;;;;;5041647;28;20505;-73
2021/11/30 18:36:35;;;;;;;6.85;4.32;;;;;;;;;;5033134;28;20030;-73